createdAt,value
2019-02-27T00:01:59.484Z,10.24
2019-02-27T00:04:30.280Z,10.28
2019-02-27T00:07:01.130Z,10.33
2019-02-27T00:09:32.891Z,10.36
2019-02-27T00:12:09.265Z,10.39
2019-02-27T00:14:39.721Z,10.42
2019-02-27T00:17:10.564Z,10.35
2019-02-27T00:19:43.262Z,10.27
2019-02-27T00:22:17.274Z,10.19
2019-02-27T00:24:47.728Z,10.10
2019-02-27T00:27:18.164Z,10.09
2019-02-27T00:29:48.658Z,10.13
2019-02-27T00:32:22.416Z,10.17
2019-02-27T00:34:53.044Z,10.19
2019-02-27T00:37:23.759Z,10.19
2019-02-27T00:39:54.198Z,10.23
2019-02-27T00:42:33.324Z,10.24
2019-02-27T00:44:57.584Z,10.19
2019-02-27T00:47:28.029Z,10.15
2019-02-27T00:49:58.436Z,10.06
2019-02-27T00:52:28.913Z,9.95
2019-02-27T00:54:59.285Z,9.87
2019-02-27T00:57:30.024Z,9.80
2019-02-27T01:00:00.783Z,9.84
2019-02-27T01:02:31.880Z,9.89
2019-02-27T01:05:02.547Z,9.94
2019-02-27T01:07:34.388Z,9.98
2019-02-27T01:10:06.246Z,10.03
2019-02-27T01:12:38.342Z,10.08
2019-02-27T01:15:10.707Z,10.12
2019-02-27T01:17:41.372Z,10.11
2019-02-27T01:20:12.471Z,10.08
2019-02-27T01:22:42.925Z,10.07
2019-02-27T01:25:13.354Z,10.05
2019-02-27T01:27:44.157Z,10.03
2019-02-27T01:30:15.348Z,9.95
2019-02-27T01:32:46.088Z,9.93
2019-02-27T01:35:18.735Z,9.95
2019-02-27T01:37:48.729Z,9.98
2019-02-27T01:40:19.086Z,10.01
2019-02-27T01:42:49.746Z,10.03
2019-02-27T01:45:21.094Z,9.99
2019-02-27T01:47:52.261Z,9.95
2019-02-27T01:50:41.368Z,9.90
2019-02-27T01:53:11.970Z,9.79
2019-02-27T01:55:42.390Z,9.70
2019-02-27T01:58:13.166Z,9.65
2019-02-27T02:00:48.393Z,9.67
2019-02-27T02:03:18.871Z,9.59
2019-02-27T02:05:49.189Z,9.50
2019-02-27T02:08:19.593Z,9.51
2019-02-27T02:10:51.650Z,9.52
2019-02-27T02:13:48.757Z,9.49
2019-02-27T02:17:07.488Z,9.41
2019-02-27T02:20:38.074Z,9.37
2019-02-27T02:23:32.731Z,9.33
2019-02-27T02:26:43.157Z,9.32
2019-02-27T02:30:17.443Z,9.30
2019-02-27T02:33:30.281Z,9.16
2019-02-27T02:37:02.422Z,9.14
2019-02-27T02:40:34.104Z,9.09
2019-02-27T02:44:01.147Z,9.05
2019-02-27T02:47:20.064Z,8.98
2019-02-27T02:50:36.240Z,8.92
2019-02-27T02:53:49.033Z,8.87
2019-02-27T02:56:51.585Z,8.85
2019-02-27T03:00:00.127Z,8.85
2019-02-27T03:03:27.000Z,8.83
2019-02-27T03:06:34.994Z,8.83
2019-02-27T03:10:09.803Z,8.78
2019-02-27T03:13:32.987Z,8.67
2019-02-27T03:16:16.278Z,8.60
2019-02-27T03:19:16.586Z,8.53
2019-02-27T03:22:41.599Z,8.48
2019-02-27T03:25:47.431Z,8.43
2019-02-27T03:29:25.153Z,8.40
2019-02-27T03:32:54.097Z,8.43
2019-02-27T03:36:09.690Z,8.43
2019-02-27T03:39:35.743Z,8.36
2019-02-27T03:43:29.690Z,8.32
2019-02-27T03:46:25.470Z,8.35
2019-02-27T03:49:54.674Z,8.37
2019-02-27T03:53:19.059Z,8.32
2019-02-27T03:57:00.716Z,8.28
2019-02-27T04:00:23.294Z,8.20
2019-02-27T04:04:10.563Z,8.16
2019-02-27T04:07:20.013Z,8.09
2019-02-27T04:09:55.066Z,8.03
2019-02-27T04:12:22.489Z,7.97
2019-02-27T04:14:52.825Z,7.88
2019-02-27T04:17:28.483Z,7.92
2019-02-27T04:19:59.215Z,7.96
2019-02-27T04:22:29.609Z,7.93
2019-02-27T04:25:00.302Z,7.90
2019-02-27T04:27:30.831Z,7.89
2019-02-27T04:30:01.193Z,7.87
2019-02-27T04:32:31.626Z,7.84
2019-02-27T04:35:05.911Z,7.82
2019-02-27T04:37:34.629Z,7.83
2019-02-27T04:40:05.646Z,7.83
2019-02-27T04:42:36.377Z,7.80
2019-02-27T04:45:09.849Z,7.85
2019-02-27T04:47:50.435Z,7.89
2019-02-27T04:50:28.856Z,7.89
2019-02-27T04:53:00.074Z,7.94
2019-02-27T04:55:40.301Z,8.00
2019-02-27T04:58:29.015Z,8.01
2019-02-27T05:01:05.866Z,8.05
2019-02-27T05:03:37.510Z,8.09
2019-02-27T05:06:22.752Z,8.13
2019-02-27T05:08:53.090Z,8.14
2019-02-27T05:11:32.975Z,8.20
2019-02-27T05:14:11.480Z,8.21
2019-02-27T05:16:47.049Z,8.20
2019-02-27T05:19:16.610Z,8.21
2019-02-27T05:21:52.599Z,8.23
2019-02-27T05:24:24.897Z,8.24
2019-02-27T05:27:02.066Z,8.20
2019-02-27T05:29:39.463Z,8.14
2019-02-27T05:32:09.933Z,8.10
2019-02-27T05:34:40.422Z,8.05
2019-02-27T05:37:10.819Z,8.02
2019-02-27T05:39:41.172Z,7.95
2019-02-27T05:42:13.679Z,7.89
2019-02-27T05:44:44.369Z,7.87
2019-02-27T05:47:14.713Z,7.82
2019-02-27T05:49:45.636Z,7.78
2019-02-27T05:52:15.978Z,7.74
2019-02-27T05:54:47.998Z,7.72
2019-02-27T05:57:21.079Z,7.75
2019-02-27T05:59:52.415Z,7.77
2019-02-27T06:02:22.762Z,7.77
2019-02-27T06:04:53.249Z,7.77
2019-02-27T06:07:23.997Z,7.77
2019-02-27T06:09:54.482Z,7.76
2019-02-27T06:12:24.855Z,7.76
2019-02-27T06:14:55.592Z,7.70
2019-02-27T06:17:26.098Z,7.66
2019-02-27T06:19:56.442Z,7.68
2019-02-27T06:22:30.221Z,7.70
2019-02-27T06:24:59.186Z,7.73
2019-02-27T06:27:31.653Z,7.79
2019-02-27T06:30:06.108Z,7.89
2019-02-27T06:32:36.994Z,8.00
2019-02-27T06:35:08.168Z,8.07
2019-02-27T06:37:50.774Z,8.16
2019-02-27T06:40:20.473Z,8.24
2019-02-27T06:42:56.992Z,8.30
2019-02-27T06:45:34.552Z,8.34
2019-02-27T06:48:12.623Z,8.34
2019-02-27T06:50:43.321Z,8.41
2019-02-27T06:53:16.430Z,8.45
2019-02-27T06:55:47.184Z,8.43
2019-02-27T06:58:17.543Z,8.40
2019-02-27T07:00:51.285Z,8.38
2019-02-27T07:03:21.639Z,8.46
2019-02-27T07:05:52.139Z,8.53
2019-02-27T07:08:22.424Z,8.55
2019-02-27T07:10:58.948Z,8.51
2019-02-27T07:13:29.791Z,8.49
2019-02-27T07:15:58.850Z,8.46
2019-02-27T07:18:31.611Z,8.46
2019-02-27T07:21:02.338Z,8.47
2019-02-27T07:23:32.729Z,8.50
2019-02-27T07:26:03.456Z,8.52
2019-02-27T07:28:33.897Z,8.51
2019-02-27T07:31:04.270Z,8.48
2019-02-27T07:33:41.474Z,8.51
2019-02-27T07:36:12.285Z,8.50
2019-02-27T07:38:42.765Z,8.56
2019-02-27T07:41:17.566Z,8.67
2019-02-27T07:43:45.383Z,8.72
2019-02-27T07:46:15.758Z,8.76
2019-02-27T07:48:46.248Z,8.80
2019-02-27T07:51:16.661Z,8.92
2019-02-27T07:53:47.510Z,9.06
2019-02-27T07:56:18.247Z,9.12
2019-02-27T07:58:48.782Z,9.15
2019-02-27T08:01:20.976Z,9.26
2019-02-27T08:03:51.937Z,9.40
2019-02-27T08:06:23.661Z,9.62
2019-02-27T08:09:01.629Z,9.79
2019-02-27T08:11:32.622Z,9.76
2019-02-27T08:14:03.931Z,9.84
2019-02-27T08:16:36.959Z,9.98
2019-02-27T08:19:08.830Z,10.12
2019-02-27T08:21:39.234Z,10.21
2019-02-27T08:24:11.105Z,10.32
2019-02-27T08:26:41.597Z,10.41
2019-02-27T08:29:12.474Z,10.57
2019-02-27T08:31:43.027Z,10.70
2019-02-27T08:34:14.281Z,10.83
2019-02-27T08:36:55.616Z,10.92
2019-02-27T08:39:27.582Z,10.99
2019-02-27T08:42:03.216Z,11.13
2019-02-27T08:44:33.141Z,11.26
2019-02-27T08:47:04.459Z,11.39
2019-02-27T08:49:35.530Z,11.57
2019-02-27T08:52:08.364Z,11.63
2019-02-27T08:54:38.665Z,11.79
2019-02-27T08:57:09.306Z,11.95
2019-02-27T08:59:40.773Z,12.05
2019-02-27T09:02:13.528Z,12.16
2019-02-27T09:04:45.507Z,12.27
2019-02-27T09:07:16.269Z,12.34
2019-02-27T09:09:51.249Z,12.49
2019-02-27T09:12:20.215Z,12.64
2019-02-27T09:14:50.618Z,12.72
2019-02-27T09:17:21.471Z,12.82
2019-02-27T09:19:52.335Z,12.90
2019-02-27T09:22:22.733Z,13.08
2019-02-27T09:24:53.578Z,13.24
2019-02-27T09:27:23.953Z,13.38
2019-02-27T09:29:55.379Z,13.45
2019-02-27T09:32:26.322Z,13.60
2019-02-27T09:34:59.598Z,13.74
2019-02-27T09:37:31.165Z,13.84
2019-02-27T09:40:04.747Z,13.96
2019-02-27T09:42:33.801Z,14.06
2019-02-27T09:45:04.458Z,14.09
2019-02-27T09:47:36.114Z,14.20
2019-02-27T09:50:19.791Z,14.26
2019-02-27T09:53:19.109Z,14.46
2019-02-27T09:55:44.111Z,14.60
2019-02-27T09:58:15.607Z,14.74
2019-02-27T10:01:03.699Z,14.84
2019-02-27T10:03:34.639Z,14.88
2019-02-27T10:06:05.083Z,14.93
2019-02-27T10:08:35.921Z,14.97
2019-02-27T10:11:06.344Z,15.14
2019-02-27T10:13:37.920Z,15.15
2019-02-27T10:16:08.958Z,15.24
2019-02-27T10:18:39.853Z,15.42
2019-02-27T10:21:12.141Z,15.50
2019-02-27T10:23:43.099Z,15.63
2019-02-27T10:26:16.554Z,15.82
2019-02-27T10:28:46.444Z,15.80
2019-02-27T10:31:16.998Z,15.97
2019-02-27T10:33:48.287Z,16.12
2019-02-27T10:36:27.303Z,16.28
2019-02-27T10:38:59.388Z,16.41
2019-02-27T10:41:30.340Z,16.59
2019-02-27T10:44:01.087Z,16.59
2019-02-27T10:46:31.499Z,16.60
2019-02-27T10:49:02.645Z,16.62
2019-02-27T10:51:33.074Z,16.66
2019-02-27T10:54:05.404Z,16.76
2019-02-27T10:56:35.681Z,16.82
2019-02-27T10:59:08.232Z,16.91
2019-02-27T11:01:38.853Z,16.94
2019-02-27T11:04:09.383Z,16.96
2019-02-27T11:06:39.682Z,16.97
2019-02-27T11:09:26.087Z,17.07
2019-02-27T11:11:56.539Z,17.24
2019-02-27T11:14:31.708Z,17.42
2019-02-27T11:17:02.489Z,17.43
2019-02-27T11:19:31.626Z,17.59
2019-02-27T11:22:02.106Z,17.74
2019-02-27T11:24:32.542Z,17.89
2019-02-27T11:27:03.483Z,17.97
2019-02-27T11:29:37.824Z,17.99
2019-02-27T11:32:11.265Z,18.15
2019-02-27T11:34:41.675Z,18.22
2019-02-27T11:37:13.844Z,18.26
2019-02-27T11:39:48.797Z,18.26
2019-02-27T11:42:19.557Z,18.31
2019-02-27T11:44:51.741Z,18.47
2019-02-27T11:47:22.493Z,18.55
2019-02-27T11:49:54.264Z,18.51
2019-02-27T11:52:28.630Z,18.59
2019-02-27T11:54:58.184Z,18.64
2019-02-27T11:57:30.593Z,18.72
2019-02-27T12:00:01.945Z,18.72
2019-02-27T12:02:37.782Z,18.81
2019-02-27T12:05:07.407Z,18.84
2019-02-27T12:07:37.876Z,18.90
2019-02-27T12:10:16.556Z,19.08
2019-02-27T12:12:48.567Z,19.19
2019-02-27T12:15:20.465Z,19.29
2019-02-27T12:17:52.633Z,19.30
2019-02-27T12:20:23.933Z,19.26
2019-02-27T12:22:54.739Z,19.29
2019-02-27T12:25:29.126Z,19.95
2019-02-27T12:28:00.320Z,20.88
2019-02-27T12:30:31.043Z,21.15
2019-02-27T12:33:01.549Z,20.79
2019-02-27T12:35:32.216Z,20.44
2019-02-27T12:38:09.048Z,20.19
2019-02-27T12:40:40.298Z,20.09
2019-02-27T12:43:17.271Z,20.12
2019-02-27T12:45:44.951Z,20.13
2019-02-27T12:48:16.519Z,20.09
2019-02-27T12:50:47.020Z,20.05
2019-02-27T12:53:20.627Z,19.98
2019-02-27T12:55:51.677Z,19.92
2019-02-27T12:58:27.153Z,19.89
2019-02-27T13:00:57.692Z,19.91
2019-02-27T13:03:28.228Z,19.93
2019-02-27T13:06:00.993Z,19.95
2019-02-27T13:08:31.288Z,19.90
2019-02-27T13:11:05.311Z,19.92
2019-02-27T13:13:37.290Z,20.03
2019-02-27T13:16:07.939Z,20.07
2019-02-27T13:18:39.095Z,20.06
2019-02-27T13:21:20.130Z,20.14
2019-02-27T13:23:47.740Z,20.13
2019-02-27T13:26:18.209Z,19.99
2019-02-27T13:28:49.649Z,19.98
2019-02-27T13:31:20.447Z,19.98
2019-02-27T13:33:52.611Z,19.92
2019-02-27T13:36:23.132Z,19.95
2019-02-27T13:38:54.186Z,20.02
2019-02-27T13:41:25.313Z,20.12
2019-02-27T13:43:58.253Z,20.01
2019-02-27T13:46:28.288Z,19.94
2019-02-27T13:48:58.925Z,19.98
2019-02-27T13:51:29.749Z,20.01
2019-02-27T13:54:06.883Z,20.09
2019-02-27T13:56:39.088Z,20.03
2019-02-27T13:59:10.905Z,20.01
2019-02-27T14:01:42.339Z,20.06
2019-02-27T14:04:12.968Z,20.02
2019-02-27T14:06:47.407Z,20.03
2019-02-27T14:09:19.026Z,19.99
2019-02-27T14:11:49.600Z,19.92
2019-02-27T14:14:21.962Z,20.01
2019-02-27T14:16:52.875Z,20.08
2019-02-27T14:19:23.899Z,20.12
2019-02-27T14:21:56.170Z,20.13
2019-02-27T14:24:26.915Z,20.14
2019-02-27T14:26:57.362Z,20.06
2019-02-27T14:29:29.835Z,20.03
2019-02-27T14:32:01.357Z,20.02
2019-02-27T14:34:34.343Z,19.99
2019-02-27T14:37:04.939Z,20.03
2019-02-27T14:39:35.330Z,20.04
2019-02-27T14:42:06.817Z,20.05
2019-02-27T14:44:38.326Z,19.92
2019-02-27T14:47:10.938Z,19.85
2019-02-27T14:49:43.314Z,19.92
2019-02-27T14:52:14.763Z,19.98
2019-02-27T14:54:45.217Z,19.93
2019-02-27T14:57:16.098Z,19.86
2019-02-27T14:59:48.254Z,19.83
2019-02-27T15:02:22.039Z,19.81
2019-02-27T15:04:50.846Z,19.67
2019-02-27T15:07:22.187Z,19.64
2019-02-27T15:09:56.959Z,19.68
2019-02-27T15:12:30.991Z,19.73
2019-02-27T15:15:02.046Z,19.77
2019-02-27T15:17:32.801Z,19.72
2019-02-27T15:20:05.624Z,19.66
2019-02-27T15:22:36.553Z,19.64
2019-02-27T15:25:08.883Z,19.65
2019-02-27T15:27:39.411Z,19.62
2019-02-27T15:30:13.276Z,19.54
2019-02-27T15:32:46.770Z,19.43
2019-02-27T15:35:21.927Z,19.28
2019-02-27T15:37:51.919Z,19.21
2019-02-27T15:40:28.535Z,19.13
2019-02-27T15:42:57.161Z,19.04
2019-02-27T15:45:28.121Z,18.99
2019-02-27T15:47:59.096Z,18.97
2019-02-27T15:50:33.007Z,18.94
2019-02-27T15:53:03.813Z,18.87
2019-02-27T15:55:35.373Z,18.79
2019-02-27T15:58:06.556Z,18.69
2019-02-27T16:00:37.252Z,18.63
2019-02-27T16:03:10.984Z,18.56
2019-02-27T16:05:40.228Z,18.49
2019-02-27T16:08:12.842Z,18.43
2019-02-27T16:10:45.319Z,18.36
2019-02-27T16:13:15.311Z,18.30
2019-02-27T16:15:48.527Z,18.26
2019-02-27T16:18:21.762Z,18.21
2019-02-27T16:20:52.123Z,18.16
2019-02-27T16:23:22.796Z,18.07
2019-02-27T16:25:56.523Z,18.02
2019-02-27T16:28:28.113Z,17.95
2019-02-27T16:30:58.552Z,17.90
2019-02-27T16:33:31.573Z,17.85
2019-02-27T16:36:02.014Z,17.78
2019-02-27T16:38:32.923Z,17.72
2019-02-27T16:41:03.329Z,17.65
2019-02-27T16:43:34.299Z,17.58
2019-02-27T16:46:07.723Z,17.53
2019-02-27T16:48:36.879Z,17.45
2019-02-27T16:51:07.528Z,17.38
2019-02-27T16:53:38.007Z,17.31
2019-02-27T16:56:14.749Z,17.26
2019-02-27T16:58:45.137Z,17.20
2019-02-27T17:01:15.578Z,17.16
2019-02-27T17:03:52.546Z,17.12
2019-02-27T17:06:20.255Z,17.08
2019-02-27T17:08:50.619Z,17.04
2019-02-27T17:11:21.053Z,17.00
2019-02-27T17:13:54.059Z,16.96
2019-02-27T17:16:24.600Z,16.92
2019-02-27T17:18:59.173Z,16.87
2019-02-27T17:21:35.400Z,16.80
2019-02-27T17:24:06.040Z,16.77
2019-02-27T17:26:39.176Z,16.74
2019-02-27T17:29:08.714Z,16.69
2019-02-27T17:31:48.644Z,16.65
2019-02-27T17:34:14.440Z,16.61
2019-02-27T17:36:51.233Z,16.58
2019-02-27T17:39:27.320Z,16.53
2019-02-27T17:42:07.853Z,16.49
2019-02-27T17:44:38.836Z,16.44
2019-02-27T17:47:09.333Z,16.39
2019-02-27T17:49:40.297Z,16.34
2019-02-27T17:52:11.514Z,16.29
2019-02-27T17:54:43.660Z,16.22
2019-02-27T17:57:17.210Z,16.15
2019-02-27T17:59:49.949Z,16.08
2019-02-27T18:02:20.371Z,16.00
2019-02-27T18:04:53.707Z,15.94
2019-02-27T18:07:23.105Z,15.87
2019-02-27T18:09:53.668Z,15.79
2019-02-27T18:12:26.906Z,15.73
2019-02-27T18:15:21.174Z,15.68
2019-02-27T18:17:52.173Z,15.60
2019-02-27T18:20:25.614Z,15.55
2019-02-27T18:22:57.074Z,15.51
2019-02-27T18:25:30.492Z,15.45
2019-02-27T18:28:01.335Z,15.39
2019-02-27T18:30:32.242Z,15.37
2019-02-27T18:33:17.306Z,15.33
2019-02-27T18:35:52.239Z,15.24
2019-02-27T18:38:54.265Z,15.21
2019-02-27T18:41:55.877Z,15.16
2019-02-27T18:44:26.632Z,15.12
2019-02-27T18:47:09.524Z,15.08
2019-02-27T18:49:43.181Z,15.05
2019-02-27T18:52:21.227Z,15.02
2019-02-27T18:54:54.731Z,14.99
2019-02-27T18:57:24.989Z,14.98
2019-02-27T19:00:04.512Z,14.96
2019-02-27T19:03:27.081Z,14.94
2019-02-27T19:05:50.321Z,14.88
2019-02-27T19:08:28.082Z,14.84
2019-02-27T19:11:00.898Z,14.81
2019-02-27T19:13:33.166Z,14.77
2019-02-27T19:16:04.915Z,14.72
2019-02-27T19:18:57.448Z,14.69
2019-02-27T19:21:32.787Z,14.68
2019-02-27T19:24:34.960Z,14.66
2019-02-27T19:27:55.089Z,14.58
2019-02-27T19:30:09.552Z,14.53
2019-02-27T19:32:50.555Z,14.46
2019-02-27T19:35:25.578Z,14.41
2019-02-27T19:37:59.129Z,14.40
2019-02-27T19:40:31.190Z,14.38
2019-02-27T19:43:07.863Z,14.35
2019-02-27T19:45:42.159Z,14.27
2019-02-27T19:48:12.793Z,14.21
2019-02-27T19:50:46.245Z,14.18
2019-02-27T19:53:15.559Z,14.14
2019-02-27T19:55:47.315Z,14.10
2019-02-27T19:58:18.340Z,14.06
2019-02-27T20:00:49.024Z,14.00
2019-02-27T20:03:19.774Z,13.97
2019-02-27T20:08:45.330Z,13.87
2019-02-27T20:11:24.126Z,13.79
2019-02-27T20:13:56.344Z,13.74
2019-02-27T20:16:28.318Z,13.71
2019-02-27T20:18:58.924Z,13.69
2019-02-27T20:21:32.405Z,13.65
2019-02-27T20:24:14.184Z,13.64
2019-02-27T20:26:51.414Z,13.59
2019-02-27T20:29:21.311Z,13.53
2019-02-27T20:31:54.455Z,13.47
2019-02-27T20:34:28.839Z,13.40
2019-02-27T20:37:14.028Z,13.35
2019-02-27T20:40:01.704Z,13.29
2019-02-27T20:42:58.681Z,13.25
2019-02-27T20:45:36.009Z,13.19
2019-02-27T20:48:08.845Z,13.15
2019-02-27T20:50:55.659Z,13.10
2019-02-27T20:53:29.961Z,13.07
2019-02-27T20:56:03.073Z,13.00
2019-02-27T20:58:33.561Z,12.95
2019-02-27T21:01:13.795Z,12.91
2019-02-27T21:03:45.338Z,12.86
2019-02-27T21:06:15.994Z,12.85
2019-02-27T21:08:47.540Z,12.86
2019-02-27T21:11:29.531Z,12.84
2019-02-27T21:13:58.205Z,12.80
2019-02-27T21:16:28.771Z,12.78
2019-02-27T21:19:04.206Z,12.75
2019-02-27T21:21:54.415Z,12.70
2019-02-27T21:24:31.836Z,12.65
2019-02-27T21:27:02.402Z,12.58
2019-02-27T21:29:32.858Z,12.52
2019-02-27T21:32:04.567Z,12.47
2019-02-27T21:34:35.400Z,12.43
2019-02-27T21:37:24.483Z,12.41
2019-02-27T21:39:57.456Z,12.36
2019-02-27T21:42:32.821Z,12.33
2019-02-27T21:45:16.197Z,12.30
2019-02-27T21:47:51.389Z,12.25
2019-02-27T21:50:27.881Z,12.26
2019-02-27T21:53:21.897Z,12.24
2019-02-27T21:55:55.000Z,12.23
2019-02-27T21:58:35.035Z,12.20
2019-02-27T22:01:06.490Z,12.16
2019-02-27T22:03:40.456Z,12.11
2019-02-27T22:06:16.711Z,12.02
2019-02-27T22:08:53.302Z,11.97
2019-02-27T22:11:41.333Z,11.95
2019-02-27T22:14:27.758Z,11.90
2019-02-27T22:17:09.267Z,11.85
2019-02-27T22:19:43.979Z,11.81
2019-02-27T22:22:19.309Z,11.79
2019-02-27T22:24:57.683Z,11.75
2019-02-27T22:27:29.260Z,11.71
2019-02-27T22:30:05.751Z,11.68
2019-02-27T22:32:41.501Z,11.64
2019-02-27T22:35:24.852Z,11.62
2019-02-27T22:37:52.803Z,11.57
2019-02-27T22:40:29.091Z,11.51
2019-02-27T22:43:05.732Z,11.47
2019-02-27T22:45:43.842Z,11.45
2019-02-27T22:48:18.714Z,11.41
2019-02-27T22:50:57.031Z,11.35
2019-02-27T22:53:28.777Z,11.31
2019-02-27T22:55:59.877Z,11.26
2019-02-27T22:58:33.242Z,11.26
2019-02-27T23:01:25.904Z,11.23
2019-02-27T23:04:00.482Z,11.24
2019-02-27T23:06:31.166Z,11.23
2019-02-27T23:09:16.441Z,11.18
2019-02-27T23:11:49.688Z,11.15
2019-02-27T23:14:30.372Z,11.13
2019-02-27T23:17:07.173Z,11.13
2019-02-27T23:19:50.868Z,11.14
2019-02-27T23:22:23.790Z,11.14
2019-02-27T23:25:00.104Z,11.14
2019-02-27T23:27:51.550Z,11.09
2019-02-27T23:30:25.264Z,11.07
2019-02-27T23:33:12.730Z,11.06
2019-02-27T23:36:06.577Z,11.03
2019-02-27T23:38:39.579Z,10.99
2019-02-27T23:41:14.284Z,10.96
2019-02-27T23:43:44.531Z,10.96
2019-02-27T23:46:21.616Z,10.95
2019-02-27T23:49:06.537Z,10.92
2019-02-27T23:51:41.396Z,10.89
2019-02-27T23:54:52.023Z,10.89
2019-02-27T23:57:26.089Z,10.86
